createdAt,value
2024-02-02T00:01:20.750Z,3.52
2024-02-02T00:03:47.137Z,3.53
2024-02-02T00:06:13.541Z,3.63
2024-02-02T00:08:39.817Z,3.72
2024-02-02T00:11:06.062Z,3.76
2024-02-02T00:13:32.335Z,3.71
2024-02-02T00:15:58.576Z,3.75
2024-02-02T00:18:24.894Z,3.80
2024-02-02T00:20:51.291Z,3.83
2024-02-02T00:23:17.575Z,3.87
2024-02-02T00:25:43.817Z,3.86
2024-02-02T00:28:10.132Z,3.88
2024-02-02T00:30:36.554Z,3.88
2024-02-02T00:33:03.061Z,3.93
2024-02-02T00:35:29.875Z,3.87
2024-02-02T00:37:56.362Z,3.89
2024-02-02T00:40:22.613Z,3.94
2024-02-02T00:42:48.887Z,3.99
2024-02-02T00:45:15.237Z,4.04
2024-02-02T00:47:41.486Z,4.04
2024-02-02T00:50:07.922Z,4.05
2024-02-02T00:52:34.212Z,4.14
2024-02-02T00:55:00.690Z,4.18
2024-02-02T00:57:29.509Z,4.20
2024-02-02T00:59:55.902Z,4.22
2024-02-02T01:02:22.173Z,4.25
2024-02-02T01:04:48.430Z,4.28
2024-02-02T01:07:15.167Z,4.28
2024-02-02T01:09:41.443Z,4.37
2024-02-02T01:12:07.786Z,4.37
2024-02-02T01:14:34.039Z,4.34
2024-02-02T01:17:00.307Z,4.33
2024-02-02T01:19:26.659Z,4.36
2024-02-02T01:21:52.964Z,4.37
2024-02-02T01:24:19.255Z,4.35
2024-02-02T01:26:45.525Z,4.34
2024-02-02T01:29:11.792Z,4.37
2024-02-02T01:31:38.036Z,4.41
2024-02-02T01:34:04.460Z,4.41
2024-02-02T01:36:30.788Z,4.39
2024-02-02T01:38:57.077Z,4.34
2024-02-02T01:41:23.406Z,4.35
2024-02-02T01:43:49.670Z,4.39
2024-02-02T01:46:15.933Z,4.46
2024-02-02T01:48:42.316Z,4.43
2024-02-02T01:51:08.684Z,4.47
2024-02-02T01:53:34.943Z,4.43
2024-02-02T01:56:01.201Z,4.47
2024-02-02T01:58:27.454Z,4.45
2024-02-02T02:00:54.085Z,4.48
2024-02-02T02:03:20.425Z,4.49
2024-02-02T02:05:46.876Z,4.47
2024-02-02T02:08:13.191Z,4.47
2024-02-02T02:10:39.458Z,4.46
2024-02-02T02:13:05.708Z,4.47
2024-02-02T02:15:32.015Z,4.48
2024-02-02T02:17:58.391Z,4.50
2024-02-02T02:20:24.796Z,4.41
2024-02-02T02:22:51.112Z,4.41
2024-02-02T02:25:17.455Z,4.46
2024-02-02T02:27:43.945Z,4.44
2024-02-02T02:30:10.432Z,4.43
2024-02-02T02:32:36.830Z,4.43
2024-02-02T02:35:03.116Z,4.39
2024-02-02T02:37:29.364Z,4.40
2024-02-02T02:39:55.636Z,4.38
2024-02-02T02:42:21.922Z,4.38
2024-02-02T02:44:48.203Z,4.36
2024-02-02T02:47:14.661Z,4.35
2024-02-02T02:49:41.055Z,4.35
2024-02-02T02:52:07.392Z,4.37
2024-02-02T02:54:33.725Z,4.42
2024-02-02T02:57:00.400Z,4.42
2024-02-02T02:59:26.681Z,4.40
2024-02-02T03:01:52.932Z,4.43
2024-02-02T03:04:19.250Z,4.44
2024-02-02T03:06:45.676Z,4.42
2024-02-02T03:09:12.034Z,4.45
2024-02-02T03:11:38.576Z,4.44
2024-02-02T03:14:04.836Z,4.40
2024-02-02T03:16:31.087Z,4.36
2024-02-02T03:18:57.430Z,4.37
2024-02-02T03:21:23.937Z,4.35
2024-02-02T03:23:50.241Z,4.34
2024-02-02T03:26:16.498Z,4.38
2024-02-02T03:28:42.779Z,4.33
2024-02-02T03:31:09.039Z,4.32
2024-02-02T03:33:35.502Z,4.34
2024-02-02T03:36:01.824Z,4.34
2024-02-02T03:38:28.113Z,4.36
2024-02-02T03:40:54.367Z,4.35
2024-02-02T03:43:20.615Z,4.37
2024-02-02T03:45:46.884Z,4.38
2024-02-02T03:48:13.184Z,4.40
2024-02-02T03:50:39.467Z,4.41
2024-02-02T03:53:05.722Z,4.42
2024-02-02T03:55:32.036Z,4.38
2024-02-02T03:57:58.304Z,4.39
2024-02-02T04:00:24.641Z,4.39
2024-02-02T04:02:51.196Z,4.44
2024-02-02T04:05:17.498Z,4.42
2024-02-02T04:07:43.773Z,4.41
2024-02-02T04:10:10.034Z,4.41
2024-02-02T04:12:36.379Z,4.40
2024-02-02T04:15:02.918Z,4.45
2024-02-02T04:17:29.291Z,4.42
2024-02-02T04:19:55.595Z,4.43
2024-02-02T04:22:21.983Z,4.43
2024-02-02T04:24:48.227Z,4.41
2024-02-02T04:27:14.535Z,4.42
2024-02-02T04:29:40.787Z,4.44
2024-02-02T04:32:07.068Z,4.44
2024-02-02T04:34:33.581Z,4.48
2024-02-02T04:36:59.997Z,4.45
2024-02-02T04:39:26.300Z,4.46
2024-02-02T04:41:52.618Z,4.50
2024-02-02T04:44:18.910Z,4.47
2024-02-02T04:46:45.172Z,4.43
2024-02-02T04:49:11.489Z,4.43
2024-02-02T04:51:37.939Z,4.45
2024-02-02T04:54:04.266Z,4.45
2024-02-02T04:56:30.551Z,4.51
2024-02-02T04:58:56.818Z,4.48
2024-02-02T05:01:23.087Z,4.47
2024-02-02T05:03:49.397Z,4.48
2024-02-02T05:06:15.725Z,4.48
2024-02-02T05:08:42.007Z,4.50
2024-02-02T05:11:08.249Z,4.48
2024-02-02T05:13:34.499Z,4.48
2024-02-02T05:16:00.765Z,4.48
2024-02-02T05:18:27.197Z,4.48
2024-02-02T05:20:53.538Z,4.47
2024-02-02T05:23:19.812Z,4.50
2024-02-02T05:25:46.120Z,4.47
2024-02-02T05:28:12.489Z,4.47
2024-02-02T05:30:38.952Z,4.49
2024-02-02T05:33:05.467Z,4.49
2024-02-02T05:35:31.775Z,4.46
2024-02-02T05:37:58.069Z,4.46
2024-02-02T05:40:24.402Z,4.48
2024-02-02T05:42:50.643Z,4.50
2024-02-02T05:45:16.918Z,4.51
2024-02-02T05:47:43.215Z,4.49
2024-02-02T05:50:09.694Z,4.48
2024-02-02T05:52:36.018Z,4.48
2024-02-02T05:55:02.303Z,4.41
2024-02-02T05:57:28.628Z,4.47
2024-02-02T05:59:54.933Z,4.47
2024-02-02T06:02:21.228Z,4.50
2024-02-02T06:04:47.977Z,4.51
2024-02-02T06:07:14.483Z,4.51
2024-02-02T06:09:41.014Z,4.50
2024-02-02T06:12:07.428Z,4.47
2024-02-02T06:14:33.703Z,4.48
2024-02-02T06:16:59.977Z,4.53
2024-02-02T06:19:26.260Z,4.52
2024-02-02T06:21:52.582Z,4.55
2024-02-02T06:24:18.862Z,4.53
2024-02-02T06:26:45.176Z,4.52
2024-02-02T06:29:11.416Z,4.53
2024-02-02T06:31:37.726Z,4.53
2024-02-02T06:34:04.114Z,4.53
2024-02-02T06:36:30.476Z,4.55
2024-02-02T06:38:58.559Z,4.53
2024-02-02T06:41:24.865Z,4.59
2024-02-02T06:43:51.186Z,4.57
2024-02-02T06:46:17.541Z,4.57
2024-02-02T06:48:44.284Z,4.57
2024-02-02T06:51:10.645Z,4.59
2024-02-02T06:53:37.014Z,4.61
2024-02-02T06:56:04.165Z,4.62
2024-02-02T06:58:34.354Z,4.63
2024-02-02T07:01:00.703Z,4.67
2024-02-02T07:03:27.178Z,4.68
2024-02-02T07:05:53.516Z,4.69
2024-02-02T07:08:19.929Z,4.65
2024-02-02T07:10:46.167Z,4.69
2024-02-02T07:13:15.920Z,4.71
2024-02-02T07:15:42.258Z,4.75
2024-02-02T07:18:16.911Z,4.74
2024-02-02T07:20:59.408Z,4.76
2024-02-02T07:23:32.044Z,4.83
2024-02-02T07:25:58.292Z,4.82
2024-02-02T07:28:44.507Z,4.84
2024-02-02T07:31:10.789Z,4.86
2024-02-02T07:33:41.237Z,4.89
2024-02-02T07:36:11.571Z,-143.24
2024-02-02T07:38:48.020Z,-143.24
2024-02-02T07:41:18.045Z,-143.24
2024-02-02T07:43:44.325Z,-143.24
2024-02-02T07:46:12.558Z,-143.24
2024-02-02T07:48:41.010Z,-143.24
2024-02-02T07:51:10.154Z,-143.24
2024-02-02T07:53:36.479Z,-143.24
2024-02-02T07:56:02.798Z,-143.24
2024-02-02T07:58:29.120Z,-143.24
2024-02-02T08:00:55.473Z,-143.24
2024-02-02T08:03:21.889Z,-143.24
2024-02-02T08:05:48.271Z,-143.24
2024-02-02T08:08:14.539Z,-143.24
2024-02-02T08:10:41.538Z,-143.24
2024-02-02T08:13:08.508Z,-143.24
2024-02-02T08:15:35.801Z,-143.24
2024-02-02T08:18:02.282Z,-143.24
2024-02-02T08:20:28.604Z,-143.24
2024-02-02T08:22:54.882Z,-143.24
2024-02-02T08:25:21.141Z,-143.24
2024-02-02T08:27:47.401Z,-143.24
2024-02-02T08:30:13.719Z,-143.24
2024-02-02T08:32:40.082Z,-143.24
2024-02-02T08:35:06.542Z,-143.24
2024-02-02T08:37:32.804Z,-143.24
2024-02-02T08:39:59.063Z,-143.24
2024-02-02T08:42:25.375Z,-143.24
2024-02-02T08:44:51.700Z,-143.24
2024-02-02T08:47:17.973Z,-143.24
2024-02-02T08:49:50.829Z,-143.24
2024-02-02T08:52:23.229Z,-143.24
2024-02-02T08:54:49.486Z,-143.24
2024-02-02T08:57:24.818Z,-143.24
2024-02-02T08:59:51.071Z,-143.24
2024-02-02T09:02:36.041Z,-143.24
2024-02-02T09:05:04.644Z,-143.24
2024-02-02T09:07:30.901Z,-143.24
2024-02-02T09:09:57.265Z,-143.24
2024-02-02T09:12:24.125Z,-143.24
2024-02-02T09:14:50.401Z,-143.24
2024-02-02T09:17:16.653Z,-143.24
2024-02-02T09:19:45.972Z,-143.24
2024-02-02T09:22:13.418Z,-143.24
2024-02-02T09:24:57.717Z,-143.24
2024-02-02T09:27:32.694Z,-143.24
2024-02-02T09:29:58.961Z,-143.24
2024-02-02T09:32:25.332Z,-143.24
2024-02-02T09:34:51.794Z,-143.24
2024-02-02T09:37:21.820Z,-143.24
2024-02-02T09:39:54.782Z,-143.24
2024-02-02T09:42:27.305Z,-143.24
2024-02-02T09:44:55.035Z,-143.24
2024-02-02T09:47:21.312Z,-143.24
2024-02-02T09:49:54.591Z,-143.24
2024-02-02T09:52:39.405Z,-143.24
2024-02-02T09:55:17.670Z,-143.24
2024-02-02T09:57:54.668Z,-143.24
2024-02-02T10:00:25.209Z,-143.24
2024-02-02T10:03:00.894Z,-143.24
2024-02-02T10:05:46.125Z,-143.24
2024-02-02T10:08:18.120Z,-143.24
2024-02-02T10:10:44.308Z,-143.24
2024-02-02T10:13:29.264Z,-143.24
2024-02-02T10:16:01.454Z,-143.24
2024-02-02T10:18:36.090Z,-143.24
2024-02-02T10:21:31.973Z,-143.24
2024-02-02T10:24:16.046Z,-143.24
2024-02-02T10:26:58.191Z,-143.24
2024-02-02T10:29:32.729Z,-143.24
2024-02-02T10:32:04.131Z,-143.24
2024-02-02T10:34:30.405Z,-143.24
2024-02-02T10:37:05.357Z,-143.24
2024-02-02T10:39:42.999Z,-143.24
2024-02-02T10:42:14.066Z,-143.24
2024-02-02T10:44:48.844Z,-143.24
2024-02-02T10:47:20.261Z,-143.24
2024-02-02T10:49:56.323Z,-143.24
2024-02-02T10:52:26.502Z,-143.24
2024-02-02T10:54:56.575Z,-143.24
2024-02-02T10:57:32.362Z,-143.24
2024-02-02T11:00:05.511Z,-143.24
2024-02-02T11:02:37.222Z,-143.24
2024-02-02T11:05:12.725Z,-143.24
2024-02-02T11:07:59.242Z,-143.24
2024-02-02T11:10:28.316Z,-143.24
2024-02-02T11:13:24.118Z,-143.24
2024-02-02T11:15:50.326Z,-143.24
2024-02-02T11:18:22.725Z,-143.24
2024-02-02T11:20:49.123Z,-143.24
2024-02-02T11:23:18.356Z,-143.24
2024-02-02T11:25:53.501Z,-143.24
2024-02-02T11:28:52.222Z,-143.24
2024-02-02T11:31:23.976Z,-143.24
2024-02-02T11:33:55.927Z,-143.24
2024-02-02T11:36:27.848Z,-143.24
2024-02-02T11:39:03.862Z,-143.24
2024-02-02T11:41:31.188Z,-143.24
2024-02-02T11:43:57.465Z,-143.24
2024-02-02T11:46:24.107Z,-143.24
2024-02-02T11:48:51.203Z,-143.24
2024-02-02T11:51:17.583Z,-143.24
2024-02-02T11:53:53.152Z,-143.24
2024-02-02T11:56:21.030Z,-143.24
2024-02-02T11:58:48.121Z,-143.24
2024-02-02T12:01:34.625Z,-143.24
2024-02-02T12:04:11.304Z,-143.24
2024-02-02T12:06:45.228Z,-143.24
2024-02-02T12:09:15.925Z,-143.24
2024-02-02T12:11:44.639Z,-143.24
2024-02-02T12:14:31.615Z,-143.24
2024-02-02T12:16:58.280Z,-143.24
2024-02-02T12:19:24.729Z,-143.24
2024-02-02T12:21:51.130Z,-143.24
2024-02-02T12:24:17.408Z,-143.24
2024-02-02T12:26:45.422Z,-143.24
2024-02-02T12:29:13.085Z,-143.24
2024-02-02T12:31:39.342Z,-143.24
2024-02-02T12:34:05.717Z,-143.24
2024-02-02T12:36:32.118Z,-143.24
2024-02-02T12:38:58.748Z,-143.24
2024-02-02T12:41:25.021Z,-143.24
2024-02-02T12:43:51.285Z,-143.24
2024-02-02T12:46:17.555Z,-143.24
2024-02-02T12:48:43.918Z,-143.24
2024-02-02T12:51:10.255Z,-143.24
2024-02-02T12:53:36.560Z,-143.24
2024-02-02T12:56:03.134Z,-143.24
2024-02-02T12:58:29.383Z,-143.24
2024-02-02T13:00:55.683Z,-143.24
2024-02-02T13:03:22.039Z,-143.24
2024-02-02T13:05:48.279Z,-143.24
2024-02-02T13:08:14.540Z,-143.24
2024-02-02T13:10:47.517Z,-143.24
2024-02-02T13:13:23.317Z,-143.24
2024-02-02T13:15:49.583Z,-143.24
2024-02-02T13:18:19.490Z,-143.24
2024-02-02T13:20:49.261Z,-143.24
2024-02-02T13:23:22.128Z,-143.24
2024-02-02T13:25:57.958Z,-143.24
2024-02-02T13:28:24.248Z,-143.24
2024-02-02T13:31:00.210Z,-143.24
2024-02-02T13:33:29.923Z,-143.24
2024-02-02T13:35:56.447Z,-143.24
2024-02-02T13:38:22.720Z,-143.24
2024-02-02T13:40:49.271Z,-143.24
2024-02-02T13:43:15.582Z,-143.24
2024-02-02T13:45:41.963Z,-143.24
2024-02-02T13:48:08.417Z,-143.24
2024-02-02T13:50:44.143Z,-143.24
2024-02-02T13:53:10.522Z,-143.24
2024-02-02T13:55:36.969Z,-143.24
2024-02-02T13:58:03.226Z,-143.24
2024-02-02T14:00:30.170Z,-143.24
2024-02-02T14:03:09.178Z,-143.24
2024-02-02T14:05:35.559Z,-143.24
2024-02-02T14:08:01.815Z,-143.24
2024-02-02T14:10:28.104Z,-143.24
2024-02-02T14:12:55.168Z,-143.24
2024-02-02T14:15:21.462Z,-143.24
2024-02-02T14:17:47.759Z,-143.24
2024-02-02T14:20:14.042Z,-143.24
2024-02-02T14:22:40.291Z,-143.24
2024-02-02T14:25:08.394Z,-143.24
2024-02-02T14:27:38.745Z,-143.24
2024-02-02T14:30:08.152Z,-143.24
2024-02-02T14:32:34.858Z,-143.24
2024-02-02T14:35:01.393Z,-143.24
2024-02-02T14:37:27.811Z,-143.24
2024-02-02T14:39:54.077Z,-143.24
2024-02-02T14:42:20.369Z,-143.24
2024-02-02T14:44:46.653Z,-143.24
2024-02-02T14:47:12.909Z,-143.24
2024-02-02T14:49:39.384Z,-143.24
2024-02-02T14:52:06.238Z,-143.24
2024-02-02T14:54:32.613Z,-143.24
2024-02-02T14:56:58.957Z,-143.24
2024-02-02T14:59:25.546Z,-143.24
2024-02-02T15:01:51.803Z,-143.24
2024-02-02T15:04:18.126Z,-143.24
2024-02-02T15:06:44.478Z,-143.24
2024-02-02T15:09:10.822Z,-143.24
2024-02-02T15:11:37.095Z,-143.24
2024-02-02T15:14:03.338Z,-143.24
2024-02-02T15:16:29.590Z,-143.24
2024-02-02T15:18:55.951Z,-143.24
2024-02-02T15:21:22.324Z,-143.24
2024-02-02T15:23:48.575Z,-143.24
2024-02-02T15:26:14.843Z,-143.24
2024-02-02T15:28:41.190Z,-143.24
2024-02-02T15:31:07.571Z,-143.24
2024-02-02T15:33:36.882Z,-143.24
2024-02-02T15:36:03.397Z,-143.24
2024-02-02T15:38:29.767Z,-143.24
2024-02-02T15:40:56.029Z,-143.24
2024-02-02T15:43:22.349Z,-143.24
2024-02-02T15:45:48.641Z,-143.24
2024-02-02T15:48:15.123Z,-143.24
2024-02-02T15:50:42.019Z,-143.24
2024-02-02T15:53:08.271Z,-143.24
2024-02-02T15:55:34.533Z,-143.24
2024-02-02T15:58:00.885Z,-143.24
2024-02-02T16:00:27.240Z,-143.24
2024-02-02T16:02:53.519Z,-143.24
2024-02-02T16:05:19.796Z,-143.24
2024-02-02T16:07:46.093Z,-143.24
2024-02-02T16:10:12.733Z,-143.24
2024-02-02T16:12:39.073Z,-143.24
2024-02-02T16:15:08.796Z,-143.24
2024-02-02T16:17:38.479Z,-143.24
2024-02-02T16:20:05.508Z,-143.24
2024-02-02T16:22:32.077Z,-143.24
2024-02-02T16:24:58.367Z,-143.24
2024-02-02T16:27:24.678Z,-143.24
2024-02-02T16:29:50.985Z,-143.24
2024-02-02T16:32:17.258Z,-143.24
2024-02-02T16:34:43.643Z,-143.24
2024-02-02T16:37:09.967Z,-143.24
2024-02-02T16:39:36.261Z,-143.24
2024-02-02T16:42:02.582Z,-143.24
2024-02-02T16:44:30.080Z,-143.24
2024-02-02T16:46:56.613Z,-143.24
2024-02-02T16:49:23.032Z,-143.24
2024-02-02T16:51:49.387Z,-143.24
2024-02-02T16:54:15.713Z,-143.24
2024-02-02T16:56:41.976Z,-143.24
2024-02-02T16:59:08.737Z,-143.24
2024-02-02T17:01:35.408Z,-143.24
2024-02-02T17:04:02.026Z,-143.24
2024-02-02T17:06:28.496Z,-143.24
2024-02-02T17:08:54.854Z,-143.24
2024-02-02T17:11:21.280Z,-143.24
2024-02-02T17:13:47.609Z,-143.24
2024-02-02T17:16:13.878Z,-143.24
2024-02-02T17:18:40.198Z,-143.24
2024-02-02T17:21:06.735Z,-143.24
2024-02-02T17:23:32.990Z,-143.24
2024-02-02T17:25:59.252Z,-143.24
2024-02-02T17:28:25.520Z,-143.24
2024-02-02T17:30:51.813Z,-143.24
2024-02-02T17:33:18.221Z,-143.24
2024-02-02T17:35:47.357Z,-143.24
2024-02-02T17:38:13.855Z,-143.24
2024-02-02T17:40:40.121Z,-143.24
2024-02-02T17:43:06.416Z,-143.24
2024-02-02T17:45:32.703Z,-143.24
2024-02-02T17:47:59.159Z,-143.24
2024-02-02T17:50:25.589Z,-143.24
2024-02-02T17:52:51.964Z,-143.24
2024-02-02T17:55:18.227Z,-143.24
2024-02-02T17:57:44.521Z,-143.24
2024-02-02T18:00:11.070Z,-143.24
2024-02-02T18:02:37.750Z,-143.24
2024-02-02T18:05:04.108Z,-143.24
2024-02-02T18:07:35.792Z,-143.24
2024-02-02T18:10:10.493Z,-143.24
2024-02-02T18:12:36.866Z,-143.24
2024-02-02T18:15:03.732Z,-143.24
2024-02-02T18:17:30.122Z,-143.24
2024-02-02T18:19:56.402Z,-143.24
2024-02-02T18:22:22.669Z,-143.24
2024-02-02T18:24:48.982Z,-143.24
2024-02-02T18:27:15.267Z,-143.24
2024-02-02T18:29:41.600Z,-143.24
2024-02-02T18:32:07.853Z,-143.24
2024-02-02T18:34:34.316Z,-143.24
2024-02-02T18:37:00.683Z,-143.24
2024-02-02T18:39:27.055Z,-143.24
2024-02-02T18:41:53.321Z,-143.24
2024-02-02T18:44:19.571Z,-143.24
2024-02-02T18:46:45.869Z,-143.24
2024-02-02T18:49:12.256Z,-143.24
2024-02-02T18:51:38.560Z,-143.24
2024-02-02T18:54:05.020Z,-143.24
2024-02-02T18:56:31.336Z,-143.24
2024-02-02T18:58:57.661Z,-143.24
2024-02-02T19:01:27.177Z,-143.24
2024-02-02T19:03:53.592Z,-143.24
2024-02-02T19:06:20.058Z,-143.24
2024-02-02T19:08:46.392Z,-143.24
2024-02-02T19:11:15.913Z,-143.24
2024-02-02T19:13:42.243Z,-143.24
2024-02-02T19:16:21.437Z,-143.24
2024-02-02T19:18:48.028Z,-143.24
2024-02-02T19:21:20.903Z,-143.24
2024-02-02T19:23:47.210Z,-143.24
2024-02-02T19:26:13.497Z,-143.24
2024-02-02T19:28:39.949Z,-143.24
2024-02-02T19:31:06.223Z,-143.24
2024-02-02T19:33:32.723Z,-143.24
2024-02-02T19:35:59.055Z,-143.24
2024-02-02T19:38:25.358Z,-143.24
2024-02-02T19:40:51.631Z,-143.24
2024-02-02T19:43:17.885Z,-143.24
2024-02-02T19:45:44.213Z,-143.24
2024-02-02T19:48:10.597Z,-143.24
2024-02-02T19:50:36.947Z,-143.24
2024-02-02T19:53:03.211Z,-143.24
2024-02-02T19:55:29.469Z,-143.24
2024-02-02T19:57:55.879Z,-143.24
2024-02-02T20:00:22.234Z,-143.24
2024-02-02T20:02:48.703Z,-143.24
2024-02-02T20:05:15.173Z,-143.24
2024-02-02T20:07:44.395Z,-143.24
2024-02-02T20:10:10.669Z,-143.24
2024-02-02T20:12:36.973Z,-143.24
2024-02-02T20:15:03.399Z,-143.24
2024-02-02T20:17:29.764Z,-143.24
2024-02-02T20:19:56.188Z,-143.24
2024-02-02T20:22:22.526Z,-143.24
2024-02-02T20:24:48.844Z,-143.24
2024-02-02T20:27:15.176Z,-143.24
2024-02-02T20:29:41.678Z,-143.24
2024-02-02T20:32:08.020Z,-143.24
2024-02-02T20:34:34.647Z,-143.24
2024-02-02T20:37:01.182Z,-143.24
2024-02-02T20:39:27.564Z,-143.24
2024-02-02T20:41:53.896Z,-143.24
2024-02-02T20:44:20.162Z,-143.24
2024-02-02T20:46:46.430Z,-143.24
2024-02-02T20:49:12.747Z,-143.24
2024-02-02T20:51:42.143Z,-143.24
2024-02-02T20:54:08.440Z,-143.24
2024-02-02T20:56:40.219Z,-143.24
2024-02-02T20:59:06.537Z,-143.24
2024-02-02T21:01:32.832Z,-143.24
2024-02-02T21:03:59.177Z,-143.24
2024-02-02T21:06:25.625Z,-143.24
2024-02-02T21:08:51.997Z,-143.24
2024-02-02T21:11:18.381Z,-143.24
2024-02-02T21:13:44.640Z,-143.24
2024-02-02T21:16:10.900Z,-143.24
2024-02-02T21:18:37.233Z,-143.24
2024-02-02T21:21:03.617Z,-143.24
2024-02-02T21:23:29.901Z,-143.24
2024-02-02T21:25:56.140Z,-143.24
2024-02-02T21:28:22.405Z,-143.24
2024-02-02T21:30:48.683Z,-143.24
2024-02-02T21:33:17.723Z,-143.24
2024-02-02T21:35:46.289Z,-143.24
2024-02-02T21:38:12.536Z,-143.24
2024-02-02T21:40:38.780Z,-143.24
2024-02-02T21:43:05.075Z,-143.24
2024-02-02T21:45:31.389Z,-143.24
2024-02-02T21:47:57.727Z,-143.24
2024-02-02T21:50:24.158Z,-143.24
2024-02-02T21:52:50.476Z,-143.24
2024-02-02T21:55:16.746Z,-143.24
2024-02-02T21:57:43.135Z,-143.24
2024-02-02T22:00:09.645Z,-143.24
2024-02-02T22:02:35.978Z,-143.24
2024-02-02T22:05:02.304Z,-143.24
2024-02-02T22:07:28.744Z,-143.24
2024-02-02T22:09:55.106Z,-143.24
2024-02-02T22:12:21.447Z,-143.24
2024-02-02T22:14:47.735Z,-143.24
2024-02-02T22:17:14.044Z,-143.24
2024-02-02T22:19:40.475Z,-143.24
2024-02-02T22:22:07.017Z,-143.24
2024-02-02T22:24:37.673Z,-143.24
2024-02-02T22:27:04.020Z,-143.24
2024-02-02T22:29:30.350Z,-143.24
2024-02-02T22:31:56.614Z,-143.24
2024-02-02T22:34:23.076Z,-143.24
2024-02-02T22:36:49.900Z,-143.24
2024-02-02T22:39:16.180Z,-143.24
2024-02-02T22:41:42.446Z,-143.24
2024-02-02T22:44:08.694Z,-143.24
2024-02-02T22:46:34.942Z,-143.24
2024-02-02T22:49:01.466Z,-143.24
2024-02-02T22:51:27.916Z,-143.24
2024-02-02T22:53:54.235Z,-143.24
2024-02-02T22:56:20.498Z,-143.24
2024-02-02T22:58:46.764Z,-143.24
2024-02-02T23:01:13.111Z,-143.24
2024-02-02T23:03:39.593Z,-143.24
2024-02-02T23:06:06.428Z,-143.24
2024-02-02T23:08:32.712Z,-143.24
2024-02-02T23:10:58.971Z,-143.24
2024-02-02T23:13:25.664Z,-143.24
2024-02-02T23:15:52.043Z,-143.24
2024-02-02T23:18:18.497Z,-143.24
2024-02-02T23:20:44.819Z,-143.24
2024-02-02T23:23:11.088Z,-143.24
2024-02-02T23:25:37.323Z,-143.24
2024-02-02T23:28:03.605Z,-143.24
2024-02-02T23:30:29.849Z,-143.24
2024-02-02T23:32:56.120Z,-143.24
2024-02-02T23:35:22.410Z,-143.24
2024-02-02T23:37:48.740Z,-143.24
2024-02-02T23:40:15.018Z,-143.24
2024-02-02T23:42:41.341Z,-143.24
2024-02-02T23:45:07.702Z,-143.24
2024-02-02T23:47:34.084Z,-143.24
2024-02-02T23:50:00.467Z,-143.24
2024-02-02T23:52:26.754Z,-143.24
2024-02-02T23:54:53.076Z,-143.24
2024-02-02T23:57:19.393Z,-143.24
2024-02-02T23:59:45.661Z,-143.24
